Time;durP1;ratioP1;P1;durP2;ratioP2;P2;SDS_P1;SDS_P2;PMS_P1;PMS_P2;Temp;Humidity;BMP_temperature;BMP_pressure;BME280_temperature;BME280_humidity;BME280_pressure;Samples;Min_cycle;Max_cycle;Signal;HPM_P1;HPM_P2
2021/08/23 00:00:12;;;;;;;4.30;1.80;;;18.60;45.60;;;;;;10442898;28;20316;-75
2021/08/23 00:05:15;;;;;;;2.00;1.80;;;18.50;45.80;;;;;;10441458;28;20235;-75
2021/08/23 00:10:19;;;;;;;2.70;1.50;;;18.50;45.40;;;;;;10443823;28;20701;-75
2021/08/23 00:15:24;;;;;;;1.90;1.70;;;18.50;45.50;;;;;;10443141;28;20315;-75
2021/08/23 00:20:42;;;;;;;2.80;1.67;;;18.50;46.10;;;;;;10445893;28;20735;-75
2021/08/23 00:25:45;;;;;;;2.03;1.60;;;18.50;45.90;;;;;;10442195;28;20224;-75
2021/08/23 00:30:49;;;;;;;2.77;1.60;;;18.50;45.90;;;;;;10445342;28;20235;-75
2021/08/23 00:35:53;;;;;;;2.07;1.87;;;18.60;46.40;;;;;;10444446;28;20221;-75
2021/08/23 00:40:56;;;;;;;2.47;1.80;;;18.60;46.20;;;;;;10445086;28;20902;-75
2021/08/23 00:46:03;;;;;;;1.90;1.70;;;18.60;46.20;;;;;;10443052;28;20744;-75
2021/08/23 00:51:07;;;;;;;3.10;2.00;;;18.60;46.60;;;;;;10445916;28;20220;-75
2021/08/23 00:56:12;;;;;;;2.30;2.13;;;18.60;46.20;;;;;;10445251;28;20223;-75
2021/08/23 01:01:23;;;;;;;2.50;2.20;;;18.60;46.50;;;;;;10446485;28;20229;-75
2021/08/23 01:06:27;;;;;;;2.40;2.20;;;18.60;47.10;;;;;;10441781;28;20228;-75
2021/08/23 01:11:33;;;;;;;3.13;2.30;;;18.50;46.30;;;;;;10447494;28;20229;-75
2021/08/23 01:16:38;;;;;;;2.07;1.97;;;18.50;46.40;;;;;;10447799;28;20220;-75
2021/08/23 01:21:41;;;;;;;2.77;2.17;;;18.40;46.90;;;;;;10446742;28;20232;-75
2021/08/23 01:26:48;;;;;;;3.20;2.20;;;18.40;46.60;;;;;;10448736;28;20225;-75
2021/08/23 01:32:08;;;;;;;2.20;2.00;;;18.30;47.10;;;;;;10442701;28;20788;-75
2021/08/23 01:37:13;;;;;;;3.37;2.43;;;18.20;47.90;;;;;;10446525;28;20237;-75
2021/08/23 01:42:16;;;;;;;3.13;2.43;;;18.20;47.20;;;;;;10447909;28;20280;-75
2021/08/23 01:47:21;;;;;;;2.50;2.30;;;18.10;47.10;;;;;;10444387;28;20221;-75
2021/08/23 01:52:25;;;;;;;4.50;2.53;;;18.10;47.10;;;;;;10441790;28;20243;-75
2021/08/23 01:57:29;;;;;;;3.03;2.33;;;18.10;47.10;;;;;;10445004;28;20243;-75
2021/08/23 02:02:33;;;;;;;2.93;2.33;;;18.10;47.10;;;;;;10443730;28;20228;-75
2021/08/23 02:07:36;;;;;;;2.77;2.57;;;18.10;47.60;;;;;;10440378;28;20217;-75
2021/08/23 02:12:39;;;;;;;2.90;2.63;;;18.10;47.10;;;;;;10441692;28;20727;-75
2021/08/23 02:17:44;;;;;;;2.90;2.53;;;18.20;47.20;;;;;;10443926;28;20315;-75
2021/08/23 02:22:48;;;;;;;2.67;2.43;;;18.20;47.20;;;;;;10442315;28;20577;-75
2021/08/23 02:27:52;;;;;;;2.63;2.40;;;18.20;47.20;;;;;;10443650;28;20235;-75
2021/08/23 02:32:57;;;;;;;3.03;2.37;;;18.30;47.20;;;;;;10435097;28;20228;-75
2021/08/23 02:38:00;;;;;;;2.87;2.60;;;18.40;47.40;;;;;;10445509;28;20713;-75
2021/08/23 02:43:03;;;;;;;3.10;2.70;;;18.30;47.20;;;;;;10441882;28;20723;-75
2021/08/23 02:48:08;;;;;;;2.80;2.60;;;18.30;47.20;;;;;;10443755;28;20747;-75
2021/08/23 02:53:11;;;;;;;3.07;2.60;;;18.40;47.30;;;;;;10445202;28;20232;-75
2021/08/23 02:58:14;;;;;;;3.37;2.80;;;18.30;47.20;;;;;;10450632;28;20231;-75
2021/08/23 03:03:18;;;;;;;2.90;2.60;;;18.30;47.20;;;;;;10450442;28;20229;-74
2021/08/23 03:08:22;;;;;;;2.83;2.57;;;18.30;47.20;;;;;;10450515;28;20615;-75
2021/08/23 03:13:25;;;;;;;2.70;2.50;;;18.40;47.30;;;;;;10450105;28;20602;-75
2021/08/23 03:18:29;;;;;;;2.60;2.40;;;18.40;47.30;;;;;;10449425;28;20312;-75
2021/08/23 03:23:32;;;;;;;5.60;2.63;;;18.40;47.30;;;;;;10450260;28;20232;-75
2021/08/23 03:28:36;;;;;;;3.13;2.67;;;18.50;47.40;;;;;;10449856;28;20227;-75
2021/08/23 03:33:41;;;;;;;2.93;2.67;;;18.50;47.40;;;;;;10446033;28;20229;-74
2021/08/23 03:38:47;;;;;;;3.30;3.00;;;18.60;47.50;;;;;;10450602;28;20937;-75
2021/08/23 03:43:50;;;;;;;4.60;2.93;;;18.60;46.90;;;;;;10447038;28;20228;-75
2021/08/23 03:48:55;;;;;;;3.30;3.00;;;18.60;46.70;;;;;;10449597;28;20224;-75
2021/08/23 03:53:58;;;;;;;2.70;2.50;;;18.60;47.50;;;;;;10450769;28;21010;-74
2021/08/23 03:59:01;;;;;;;3.33;2.60;;;18.60;47.00;;;;;;10447532;28;20233;-75
2021/08/23 04:04:06;;;;;;;4.97;3.23;;;18.70;47.00;;;;;;10442656;28;20233;-75
2021/08/23 04:09:09;;;;;;;4.00;3.07;;;18.60;47.20;;;;;;10445684;28;20256;-74
2021/08/23 04:14:12;;;;;;;3.10;2.80;;;18.70;46.90;;;;;;10440630;28;20245;-75
2021/08/23 04:19:17;;;;;;;3.47;3.17;;;18.70;46.90;;;;;;10446393;28;20229;-75
2021/08/23 04:24:20;;;;;;;3.90;3.60;;;18.70;47.50;;;;;;10442058;28;20237;-75
2021/08/23 04:29:23;;;;;;;3.33;2.90;;;18.60;47.40;;;;;;10444940;28;20228;-75
2021/08/23 04:34:27;;;;;;;5.60;3.60;;;18.50;47.40;;;;;;10445661;28;20239;-75
2021/08/23 04:39:31;;;;;;;4.23;3.93;;;18.60;48.20;;;;;;10447855;28;20237;-75
2021/08/23 04:44:34;;;;;;;3.97;3.57;;;18.60;47.50;;;;;;10442817;28;20235;-75
2021/08/23 04:49:39;;;;;;;4.10;3.67;;;18.50;47.50;;;;;;10445840;28;20231;-75
2021/08/23 04:54:42;;;;;;;4.20;3.80;;;18.50;47.40;;;;;;10441053;28;20229;-75
2021/08/23 04:59:45;;;;;;;4.03;3.43;;;18.40;47.30;;;;;;10444613;28;20599;-75
2021/08/23 05:04:49;;;;;;;3.50;3.20;;;18.40;48.00;;;;;;10440093;28;20709;-75
2021/08/23 05:09:53;;;;;;;3.80;3.20;;;18.40;48.00;;;;;;10443978;28;20235;-75
2021/08/23 05:14:56;;;;;;;4.50;3.57;;;18.40;47.60;;;;;;10442215;28;20653;-75
2021/08/23 05:20:00;;;;;;;4.30;3.90;;;18.50;47.50;;;;;;10443265;28;20238;-74
2021/08/23 05:25:04;;;;;;;4.60;4.00;;;18.50;48.30;;;;;;10443139;28;20258;-75
2021/08/23 05:30:09;;;;;;;4.43;4.03;;;18.50;47.80;;;;;;10442749;28;20221;-75
2021/08/23 05:35:13;;;;;;;4.03;3.60;;;18.60;48.20;;;;;;10441099;28;20710;-75
2021/08/23 05:40:17;;;;;;;3.63;3.33;;;18.60;48.40;;;;;;10441342;28;20233;-75
2021/08/23 05:45:20;;;;;;;4.43;4.03;;;18.60;48.00;;;;;;10440544;28;20232;-75
2021/08/23 05:50:25;;;;;;;3.60;3.30;;;18.60;48.30;;;;;;10441145;28;20235;-75
2021/08/23 05:55:29;;;;;;;3.60;3.17;;;18.70;48.70;;;;;;10443404;28;20239;-75
2021/08/23 06:00:32;;;;;;;3.83;3.10;;;18.70;48.10;;;;;;10441159;28;20229;-75
2021/08/23 06:05:37;;;;;;;3.53;2.90;;;18.80;48.10;;;;;;10440920;28;20973;-75
2021/08/23 06:10:40;;;;;;;3.20;2.90;;;18.80;48.60;;;;;;10441216;28;20225;-75
2021/08/23 06:15:43;;;;;;;3.13;2.93;;;18.80;47.70;;;;;;10437364;28;20237;-75
2021/08/23 06:20:48;;;;;;;2.77;2.57;;;18.80;47.90;;;;;;10441141;28;20232;-75
2021/08/23 06:25:51;;;;;;;2.70;2.50;;;18.90;48.40;;;;;;10442618;28;20275;-75
2021/08/23 06:30:54;;;;;;;2.93;2.57;;;18.90;48.10;;;;;;10450714;28;20225;-75
2021/08/23 06:35:59;;;;;;;3.10;2.80;;;18.80;48.30;;;;;;10446535;28;20232;-75
2021/08/23 06:41:02;;;;;;;3.87;2.50;;;18.90;48.90;;;;;;10447139;28;20248;-75
2021/08/23 06:46:05;;;;;;;3.13;2.60;;;18.90;48.40;;;;;;10448549;28;20233;-75
2021/08/23 06:51:10;;;;;;;4.27;2.80;;;18.90;48.40;;;;;;10447229;28;20304;-75
2021/08/23 06:56:13;;;;;;;3.50;2.87;;;18.90;49.10;;;;;;10447607;28;20232;-75
2021/08/23 07:01:16;;;;;;;2.73;2.57;;;18.90;48.80;;;;;;10447262;28;20228;-75
2021/08/23 07:06:21;;;;;;;5.03;3.03;;;18.90;48.70;;;;;;10444148;28;20248;-75
2021/08/23 07:11:24;;;;;;;4.33;3.30;;;19.00;49.40;;;;;;10439920;28;20235;-75
2021/08/23 07:16:27;;;;;;;3.00;2.60;;;19.10;49.20;;;;;;10439046;28;20228;-75
2021/08/23 07:21:32;;;;;;;3.03;2.83;;;19.10;48.80;;;;;;10446521;28;20236;-75
2021/08/23 07:26:35;;;;;;;2.90;2.70;;;19.10;49.40;;;;;;10443763;28;20263;-75
2021/08/23 07:31:38;;;;;;;3.23;2.93;;;19.20;49.10;;;;;;10436163;28;20235;-74
2021/08/23 07:36:43;;;;;;;3.13;2.83;;;19.20;49.20;;;;;;10445722;28;20577;-75
2021/08/23 07:41:46;;;;;;;3.27;2.97;;;19.30;49.30;;;;;;10446378;28;20244;-74
2021/08/23 07:46:49;;;;;;;3.53;2.27;;;19.30;49.00;;;;;;10446741;28;20221;-75
2021/08/23 07:51:54;;;;;;;3.33;3.00;;;19.30;49.10;;;;;;10444929;28;20709;-75
2021/08/23 07:56:57;;;;;;;3.77;3.10;;;19.40;49.30;;;;;;10445647;28;20217;-75
2021/08/23 08:02:00;;;;;;;3.47;3.17;;;19.40;49.10;;;;;;10444687;28;20232;-74
2021/08/23 08:07:05;;;;;;;3.40;2.80;;;19.40;49.20;;;;;;10423807;28;20701;-75
2021/08/23 08:12:08;;;;;;;3.30;2.73;;;19.50;49.80;;;;;;10443487;28;20229;-75
2021/08/23 08:17:11;;;;;;;3.70;2.77;;;19.60;49.40;;;;;;10446257;28;20237;-75
2021/08/23 08:22:16;;;;;;;3.33;2.87;;;19.70;49.30;;;;;;10445914;28;20241;-75
2021/08/23 08:27:19;;;;;;;3.33;2.90;;;19.80;50.10;;;;;;10446732;28;20217;-74
2021/08/23 08:32:22;;;;;;;3.20;2.90;;;19.80;49.00;;;;;;10443422;28;20744;-75
2021/08/23 08:37:27;;;;;;;3.23;2.57;;;19.90;48.70;;;;;;10446525;28;20231;-75
2021/08/23 08:42:30;;;;;;;3.37;2.93;;;19.90;49.30;;;;;;10441782;28;20224;-75
2021/08/23 08:47:35;;;;;;;2.77;2.57;;;20.00;49.40;;;;;;10442266;28;20229;-75
2021/08/23 08:52:40;;;;;;;2.97;2.70;;;20.00;48.70;;;;;;10441214;28;20229;-74
2021/08/23 08:57:44;;;;;;;3.00;2.80;;;20.10;48.80;;;;;;10440609;28;20243;-75
2021/08/23 09:02:59;;;;;;;3.40;3.10;;;20.20;48.30;;;;;;10442870;28;20229;-75
2021/08/23 09:08:05;;;;;;;3.37;3.10;;;20.30;48.50;;;;;;10431356;28;20770;-75
2021/08/23 09:13:10;;;;;;;4.30;3.27;;;20.30;48.30;;;;;;10441965;28;20226;-75
2021/08/23 09:18:20;;;;;;;3.40;3.10;;;20.40;49.00;;;;;;10445335;28;20232;-75
2021/08/23 09:23:35;;;;;;;3.53;3.20;;;20.60;49.20;;;;;;10403793;28;20236;-75
2021/08/23 09:28:39;;;;;;;3.13;2.83;;;20.90;49.20;;;;;;10401164;28;20241;-75
2021/08/23 09:33:47;;;;;;;3.80;3.50;;;21.10;48.50;;;;;;10436405;28;20226;-75
2021/08/23 09:39:02;;;;;;;3.50;3.20;;;21.30;47.40;;;;;;10442449;28;20235;-75
2021/08/23 09:44:12;;;;;;;3.23;2.97;;;21.30;47.30;;;;;;10435282;28;20236;-75
2021/08/23 09:49:15;;;;;;;3.47;3.27;;;21.30;47.50;;;;;;10441122;28;20349;-75
2021/08/23 09:54:20;;;;;;;3.97;3.57;;;21.20;48.10;;;;;;10444324;28;20246;-75
2021/08/23 09:59:25;;;;;;;4.27;3.90;;;21.20;48.80;;;;;;10441758;28;20224;-75
2021/08/23 10:04:28;;;;;;;3.50;3.17;;;21.40;48.70;;;;;;10442057;28;20296;-75
2021/08/23 10:09:33;;;;;;;3.27;3.00;;;21.60;48.50;;;;;;10442724;28;20697;-75
2021/08/23 10:14:37;;;;;;;4.27;3.87;;;21.70;48.00;;;;;;10442907;28;20229;-75
2021/08/23 10:19:41;;;;;;;3.80;3.50;;;21.90;47.90;;;;;;10440388;28;20232;-75
2021/08/23 10:24:48;;;;;;;4.00;3.80;;;22.00;47.20;;;;;;10440722;28;20229;-75
2021/08/23 10:29:52;;;;;;;3.30;3.10;;;22.10;46.30;;;;;;10439872;28;20221;-74
2021/08/23 10:34:55;;;;;;;3.80;3.50;;;22.30;47.50;;;;;;10436636;28;20705;-75
2021/08/23 10:40:04;;;;;;;4.13;3.83;;;22.40;46.60;;;;;;10442052;28;20328;-75
2021/08/23 10:45:10;;;;;;;3.70;3.50;;;22.50;44.30;;;;;;10439310;28;20275;-75
2021/08/23 10:50:24;;;;;;;3.50;3.20;;;22.50;44.80;;;;;;10431237;28;20222;-75
2021/08/23 10:55:35;;;;;;;3.60;3.30;;;22.60;44.70;;;;;;10424871;28;20228;-75
2021/08/23 11:00:40;;;;;;;3.23;3.03;;;22.80;44.40;;;;;;10440623;28;20232;-75
2021/08/23 11:05:45;;;;;;;3.97;3.67;;;22.90;45.10;;;;;;10439057;28;20237;-75
2021/08/23 11:10:49;;;;;;;3.50;3.30;;;23.00;44.50;;;;;;10440968;28;20240;-75
2021/08/23 11:16:06;;;;;;;3.13;2.93;;;23.10;43.30;;;;;;10443810;28;20237;-75
2021/08/23 11:21:16;;;;;;;3.50;3.30;;;23.10;41.90;;;;;;10444654;28;20946;-75
2021/08/23 11:26:25;;;;;;;3.20;2.97;;;23.20;43.00;;;;;;10446975;28;20886;-75
2021/08/23 11:31:28;;;;;;;3.30;3.00;;;23.20;42.00;;;;;;10444024;28;20700;-75
2021/08/23 11:36:35;;;;;;;3.53;3.20;;;23.30;43.40;;;;;;10444729;28;20878;-75
2021/08/23 11:41:39;;;;;;;3.57;3.27;;;23.30;41.80;;;;;;10445854;28;20341;-75
2021/08/23 11:46:42;;;;;;;3.87;3.57;;;23.20;41.70;;;;;;10446858;28;20236;-75
2021/08/23 11:51:45;;;;;;;3.50;3.20;;;23.20;42.60;;;;;;10445242;28;20328;-75
2021/08/23 11:56:50;;;;;;;3.50;3.27;;;23.10;42.30;;;;;;10444102;28;20225;-75
2021/08/23 12:01:53;;;;;;;3.57;3.27;;;23.20;41.10;;;;;;10445207;28;20229;-75
2021/08/23 12:06:58;;;;;;;3.40;3.20;;;23.10;41.70;;;;;;10443246;28;20283;-73
2021/08/23 12:12:03;;;;;;;3.50;3.20;;;23.10;42.30;;;;;;10434678;28;20735;-75
2021/08/23 12:17:10;;;;;;;3.50;3.20;;;23.20;41.70;;;;;;10442464;28;20233;-75
2021/08/23 12:22:20;;;;;;;3.20;3.00;;;23.20;41.10;;;;;;10440798;28;20233;-75
2021/08/23 12:27:25;;;;;;;3.30;3.10;;;23.20;41.40;;;;;;10442920;28;20701;-75
2021/08/23 12:32:34;;;;;;;2.90;2.70;;;23.10;41.00;;;;;;10441075;28;20307;-75
2021/08/23 12:37:37;;;;;;;2.47;2.27;;;23.10;41.20;;;;;;10443147;28;20247;-75
2021/08/23 12:42:42;;;;;;;2.50;2.30;;;23.10;42.00;;;;;;10440976;28;20231;-75
2021/08/23 12:47:45;;;;;;;2.60;2.40;;;23.20;42.30;;;;;;10440206;28;20213;-75
2021/08/23 12:52:48;;;;;;;3.13;2.83;;;23.30;42.10;;;;;;10443280;28;20236;-75
2021/08/23 12:57:53;;;;;;;3.00;2.80;;;23.40;41.60;;;;;;10442401;28;20232;-75
2021/08/23 13:02:57;;;;;;;2.87;2.67;;;23.50;40.40;;;;;;10443059;28;20252;-75
2021/08/23 13:08:00;;;;;;;3.10;2.80;;;23.30;41.10;;;;;;10438537;28;20224;-75
2021/08/23 13:13:05;;;;;;;3.30;3.00;;;23.20;41.10;;;;;;10440622;28;20851;-75
2021/08/23 13:18:09;;;;;;;3.10;2.80;;;23.10;41.00;;;;;;10442804;28;20239;-75
2021/08/23 13:23:14;;;;;;;3.47;3.07;;;23.10;41.80;;;;;;10442109;28;20587;-75
2021/08/23 13:28:18;;;;;;;3.30;3.00;;;23.10;41.90;;;;;;10442537;28;20247;-75
2021/08/23 13:33:21;;;;;;;5.17;3.30;;;23.10;41.70;;;;;;10440632;28;20728;-75
2021/08/23 13:38:25;;;;;;;3.03;2.83;;;23.20;41.50;;;;;;10441736;28;20228;-76
2021/08/23 13:43:31;;;;;;;3.00;2.80;;;23.30;41.60;;;;;;10440971;28;20229;-75
2021/08/23 13:48:34;;;;;;;4.53;2.40;;;23.30;40.80;;;;;;10440311;28;20255;-75
2021/08/23 13:53:37;;;;;;;2.80;2.60;;;23.30;40.60;;;;;;10440307;28;20225;-75
2021/08/23 13:58:42;;;;;;;4.03;2.80;;;23.30;40.60;;;;;;10440516;28;20270;-75
2021/08/23 14:03:45;;;;;;;3.60;2.83;;;23.30;40.00;;;;;;10436410;28;20606;-75
2021/08/23 14:08:49;;;;;;;2.90;2.70;;;23.20;40.50;;;;;;10432297;28;20229;-72
2021/08/23 14:13:53;;;;;;;2.90;2.70;;;23.30;40.90;;;;;;10430780;28;20237;-75
2021/08/23 14:18:57;;;;;;;3.30;3.00;;;23.30;41.20;;;;;;10440219;28;20224;-75
2021/08/23 14:24:00;;;;;;;3.17;2.97;;;23.30;41.70;;;;;;10439116;28;20232;-75
2021/08/23 14:29:04;;;;;;;3.07;2.87;;;23.30;41.60;;;;;;10441151;28;20224;-75
2021/08/23 14:34:07;;;;;;;3.27;2.97;;;23.30;42.00;;;;;;10432808;28;20229;-75
2021/08/23 14:39:11;;;;;;;3.47;3.17;;;23.20;42.10;;;;;;10426360;28;20717;-76
2021/08/23 14:44:15;;;;;;;3.13;2.83;;;23.20;40.70;;;;;;10438865;28;20229;-75
2021/08/23 14:49:18;;;;;;;2.87;2.67;;;23.00;41.00;;;;;;10432537;28;20267;-75
2021/08/23 14:54:22;;;;;;;3.07;2.87;;;22.80;41.40;;;;;;10448579;28;20831;-75
2021/08/23 14:59:26;;;;;;;3.00;2.80;;;22.80;42.20;;;;;;10449731;28;20239;-75
2021/08/23 15:04:29;;;;;;;3.10;2.80;;;22.80;42.70;;;;;;10442810;28;20303;-75
2021/08/23 15:09:35;;;;;;;2.90;2.70;;;22.80;42.80;;;;;;10450456;28;20714;-75
2021/08/23 15:14:40;;;;;;;4.10;3.80;;;22.80;42.50;;;;;;10431821;28;20227;-75
2021/08/23 15:19:45;;;;;;;4.30;3.90;;;22.80;42.50;;;;;;10448558;28;20770;-76
2021/08/23 15:24:48;;;;;;;3.60;3.40;;;22.80;42.70;;;;;;10433700;28;20784;-75
2021/08/23 15:29:54;;;;;;;3.87;3.57;;;22.60;42.70;;;;;;10445021;28;20614;-75
2021/08/23 15:34:57;;;;;;;4.50;3.03;;;22.50;42.80;;;;;;10442033;28;20221;-75
2021/08/23 15:40:00;;;;;;;5.23;4.83;;;22.50;42.70;;;;;;10416226;28;20249;-75
2021/08/23 15:45:05;;;;;;;3.90;3.50;;;22.40;42.80;;;;;;10432442;28;20240;-75
2021/08/23 15:50:08;;;;;;;4.00;3.70;;;22.30;42.80;;;;;;10448907;28;20232;-75
2021/08/23 15:55:12;;;;;;;4.03;3.73;;;22.20;42.90;;;;;;10448174;28;20229;-75
2021/08/23 16:00:17;;;;;;;4.27;3.97;;;22.10;43.10;;;;;;10437917;28;20229;-75
2021/08/23 16:05:20;;;;;;;4.47;4.07;;;22.00;43.60;;;;;;10446006;28;20236;-75
2021/08/23 16:10:23;;;;;;;4.80;4.40;;;21.90;43.60;;;;;;10446905;28;20229;-75
2021/08/23 16:15:28;;;;;;;4.43;4.13;;;21.90;43.80;;;;;;10450081;28;20671;-75
2021/08/23 16:20:34;;;;;;;5.13;4.73;;;21.80;43.90;;;;;;10448099;28;20654;-75
2021/08/23 16:25:37;;;;;;;4.33;4.03;;;21.80;43.60;;;;;;10450901;28;20599;-75
2021/08/23 16:30:42;;;;;;;4.80;4.40;;;21.80;43.50;;;;;;10445834;28;20243;-75
2021/08/23 16:35:46;;;;;;;4.50;3.97;;;21.70;43.90;;;;;;10448380;28;20232;-75
2021/08/23 16:40:49;;;;;;;4.87;4.47;;;21.60;43.80;;;;;;10447510;28;20225;-75
2021/08/23 16:45:53;;;;;;;4.17;3.87;;;21.60;43.70;;;;;;10447929;28;20228;-75
2021/08/23 16:50:57;;;;;;;4.23;3.93;;;21.60;44.10;;;;;;10445762;28;20220;-75
2021/08/23 16:56:00;;;;;;;3.90;3.57;;;21.50;43.80;;;;;;10446916;28;20259;-75
2021/08/23 17:01:04;;;;;;;4.60;4.20;;;21.50;44.00;;;;;;10441145;28;20244;-75
2021/08/23 17:06:12;;;;;;;4.40;4.10;;;21.50;44.80;;;;;;10444100;28;20611;-75
2021/08/23 17:11:15;;;;;;;3.73;3.53;;;21.50;44.20;;;;;;10444262;28;20944;-75
2021/08/23 17:16:20;;;;;;;3.80;3.60;;;21.50;44.50;;;;;;10442109;28;20228;-75
2021/08/23 17:21:23;;;;;;;4.30;4.00;;;21.40;45.10;;;;;;10444820;28;20282;-75
2021/08/23 17:26:28;;;;;;;4.40;4.10;;;21.40;44.50;;;;;;10445262;28;20217;-75
2021/08/23 17:31:33;;;;;;;4.40;4.10;;;21.40;44.50;;;;;;10438788;28;20235;-75
2021/08/23 17:36:36;;;;;;;3.97;3.67;;;21.40;44.90;;;;;;10444808;28;20221;-75
2021/08/23 17:41:39;;;;;;;3.97;3.67;;;21.20;45.30;;;;;;10441659;28;20221;-75
2021/08/23 17:46:43;;;;;;;3.40;3.20;;;21.00;45.00;;;;;;10437133;28;20225;-75
2021/08/23 17:51:47;;;;;;;3.17;2.97;;;20.80;45.70;;;;;;10438053;28;20236;-75
2021/08/23 17:56:50;;;;;;;3.33;2.80;;;20.70;45.70;;;;;;10442178;28;20221;-75
2021/08/23 18:01:54;;;;;;;2.87;2.70;;;20.60;45.60;;;;;;10439365;28;20240;-75
2021/08/23 18:06:58;;;;;;;2.43;2.33;;;20.60;46.20;;;;;;10437214;28;20213;-75
2021/08/23 18:12:01;;;;;;;2.60;2.40;;;20.50;46.00;;;;;;10442205;28;20233;-75
2021/08/23 18:17:06;;;;;;;2.17;2.07;;;20.30;47.00;;;;;;10444726;28;20217;-75
2021/08/23 18:22:09;;;;;;;2.40;2.20;;;20.20;47.10;;;;;;10446860;28;20244;-75
2021/08/23 18:27:12;;;;;;;2.60;2.13;;;20.10;46.60;;;;;;10450517;28;20263;-75
2021/08/23 18:32:17;;;;;;;2.40;2.20;;;20.10;46.90;;;;;;10445837;28;20225;-75
2021/08/23 18:37:21;;;;;;;2.20;2.10;;;20.00;47.60;;;;;;10450016;28;20933;-75
2021/08/23 18:42:24;;;;;;;2.13;2.03;;;20.00;47.30;;;;;;10447626;28;20224;-75
2021/08/23 18:47:29;;;;;;;1.93;1.83;;;20.00;47.20;;;;;;10450758;28;20227;-75
2021/08/23 18:52:32;;;;;;;1.60;1.50;;;20.00;47.60;;;;;;10447665;28;20664;-75
2021/08/23 18:57:38;;;;;;;1.80;1.70;;;20.00;46.90;;;;;;10450566;28;20221;-75
2021/08/23 19:02:42;;;;;;;1.40;1.40;;;20.00;46.80;;;;;;10446388;28;20239;-75
2021/08/23 19:07:45;;;;;;;2.10;1.47;;;20.10;47.30;;;;;;10443243;28;20230;-75
2021/08/23 19:12:50;;;;;;;1.90;1.80;;;20.10;46.90;;;;;;10450025;28;20227;-75
2021/08/23 19:17:54;;;;;;;2.10;1.87;;;20.10;46.80;;;;;;10451479;28;20216;-75
2021/08/23 19:22:58;;;;;;;1.50;1.50;;;20.10;47.20;;;;;;10432781;28;20702;-75
2021/08/23 19:28:01;;;;;;;1.70;1.60;;;20.10;46.80;;;;;;10446631;28;20221;-75
2021/08/23 19:33:06;;;;;;;1.70;1.60;;;20.20;46.80;;;;;;10438566;28;20225;-75
2021/08/23 19:38:09;;;;;;;1.90;1.53;;;20.20;47.00;;;;;;10440918;28;20244;-75
2021/08/23 19:43:13;;;;;;;2.00;1.27;;;20.20;47.20;;;;;;10448082;28;20753;-75
2021/08/23 19:48:17;;;;;;;2.47;1.43;;;20.20;46.60;;;;;;10448362;28;20312;-75
2021/08/23 19:53:20;;;;;;;1.50;1.40;;;20.10;46.80;;;;;;10446445;28;20606;-75
2021/08/23 19:58:25;;;;;;;1.30;1.30;;;20.10;46.40;;;;;;10447471;28;20232;-75
2021/08/23 20:03:28;;;;;;;1.33;1.33;;;20.10;46.80;;;;;;10444028;28;20221;-75
2021/08/23 20:08:31;;;;;;;1.77;1.10;;;20.00;46.40;;;;;;10448520;28;20325;-75
2021/08/23 20:13:36;;;;;;;1.23;1.23;;;20.00;46.30;;;;;;10448641;28;20247;-75
2021/08/23 20:18:39;;;;;;;1.23;1.23;;;19.90;46.90;;;;;;10447199;28;20221;-75
2021/08/23 20:23:42;;;;;;;1.43;1.33;;;19.70;46.60;;;;;;10447173;28;20237;-75
2021/08/23 20:28:46;;;;;;;1.53;1.43;;;19.60;46.90;;;;;;10446384;28;20225;-75
2021/08/23 20:33:55;;;;;;;1.40;1.30;;;19.50;47.30;;;;;;10443102;28;20221;-75
2021/08/23 20:39:01;;;;;;;1.50;1.40;;;19.40;47.30;;;;;;10441280;28;20862;-75
2021/08/23 20:44:08;;;;;;;1.60;1.50;;;19.40;47.50;;;;;;10444550;28;20236;-75
2021/08/23 20:49:15;;;;;;;1.27;1.20;;;19.30;47.80;;;;;;10443770;28;20220;-75
2021/08/23 20:54:19;;;;;;;1.33;1.23;;;19.30;47.80;;;;;;10447099;28;20248;-75
2021/08/23 20:59:23;;;;;;;1.60;1.50;;;19.30;47.30;;;;;;10444571;28;20681;-75
2021/08/23 21:04:27;;;;;;;1.20;1.17;;;19.30;47.80;;;;;;10424832;28;20233;-74
2021/08/23 21:09:30;;;;;;;1.20;1.20;;;19.30;47.10;;;;;;10446193;28;20224;-75
2021/08/23 21:14:34;;;;;;;1.60;1.50;;;19.40;47.10;;;;;;10443630;28;20252;-74
2021/08/23 21:19:38;;;;;;;1.53;1.43;;;19.30;47.30;;;;;;10444074;28;20847;-75
2021/08/23 21:24:41;;;;;;;1.27;1.17;;;19.30;46.90;;;;;;10436251;28;20225;-75
2021/08/23 21:29:46;;;;;;;1.63;1.53;;;19.30;46.60;;;;;;10443888;28;20573;-75
2021/08/23 21:34:49;;;;;;;2.67;1.13;;;19.20;46.70;;;;;;10437572;28;20229;-75
2021/08/23 21:39:52;;;;;;;1.20;1.20;;;19.20;46.70;;;;;;10429125;28;20228;-74
2021/08/23 21:44:58;;;;;;;1.30;1.30;;;19.20;46.80;;;;;;10441292;28;20225;-75
2021/08/23 21:50:01;;;;;;;2.60;1.40;;;19.30;47.00;;;;;;10441368;28;20220;-74
2021/08/23 21:55:05;;;;;;;2.87;1.40;;;19.30;46.60;;;;;;10433353;28;20231;-74
2021/08/23 22:00:15;;;;;;;1.40;1.40;;;19.30;46.60;;;;;;10440496;28;20257;-74
2021/08/23 22:05:19;;;;;;;1.10;1.10;;;19.20;46.60;;;;;;10438634;28;20232;-75
2021/08/23 22:10:22;;;;;;;2.37;1.53;;;19.20;46.30;;;;;;10445752;28;20239;-75
2021/08/23 22:15:27;;;;;;;1.20;1.20;;;19.20;46.50;;;;;;10447120;28;20229;-74
2021/08/23 22:20:31;;;;;;;1.27;1.17;;;19.10;46.60;;;;;;10444355;28;20227;-75
2021/08/23 22:25:34;;;;;;;1.70;1.40;;;19.10;46.40;;;;;;10447136;28;20228;-74
2021/08/23 22:30:40;;;;;;;1.10;1.10;;;19.10;46.20;;;;;;10447343;28;20225;-75
2021/08/23 22:35:43;;;;;;;1.23;1.23;;;19.00;46.10;;;;;;10438678;28;20772;-74
2021/08/23 22:40:46;;;;;;;1.10;1.10;;;19.00;46.00;;;;;;10446782;28;20941;-75
2021/08/23 22:45:50;;;;;;;1.00;1.00;;;18.90;46.00;;;;;;10435223;28;20216;-74
2021/08/23 22:50:54;;;;;;;2.07;0.83;;;18.90;45.90;;;;;;10446335;28;20225;-74
2021/08/23 22:55:57;;;;;;;1.00;1.00;;;18.80;45.80;;;;;;10447643;28;20761;-75
2021/08/23 23:01:02;;;;;;;1.07;1.07;;;18.80;46.10;;;;;;10445794;28;20235;-74
2021/08/23 23:06:07;;;;;;;1.10;1.03;;;18.80;46.10;;;;;;10443564;28;20228;-74
2021/08/23 23:11:10;;;;;;;1.23;1.00;;;18.80;46.20;;;;;;10449218;28;20229;-75
2021/08/23 23:16:15;;;;;;;1.00;1.00;;;18.70;45.90;;;;;;10449932;28;20717;-74
2021/08/23 23:21:18;;;;;;;1.53;1.10;;;18.70;45.80;;;;;;10449731;28;21363;-75
2021/08/23 23:26:26;;;;;;;0.87;0.87;;;18.60;45.90;;;;;;10454616;28;21297;-75
2021/08/23 23:31:31;;;;;;;0.80;0.80;;;18.50;46.30;;;;;;10439920;28;20226;-74
2021/08/23 23:36:34;;;;;;;1.47;0.90;;;18.50;46.20;;;;;;10424898;28;20247;-75
2021/08/23 23:41:38;;;;;;;1.17;1.00;;;18.50;45.90;;;;;;10448562;28;20229;-75
2021/08/23 23:46:42;;;;;;;1.47;0.90;;;18.40;45.80;;;;;;10450288;28;20223;-75
2021/08/23 23:51:45;;;;;;;1.20;0.90;;;18.40;46.10;;;;;;10450804;28;20216;-75
2021/08/23 23:56:49;;;;;;;0.80;0.80;;;18.30;46.10;;;;;;10437059;28;20226;-74
